createdAt,value
2024-03-26T00:00:26.227Z,0.53
2024-03-26T00:01:26.277Z,0.54
2024-03-26T00:02:26.274Z,0.53
2024-03-26T00:03:26.297Z,0.54
2024-03-26T00:04:26.329Z,0.53
2024-03-26T00:05:26.356Z,0.53
2024-03-26T00:06:26.389Z,0.53
2024-03-26T00:07:26.395Z,0.53
2024-03-26T00:08:26.420Z,0.52
2024-03-26T00:09:26.441Z,0.53
2024-03-26T00:10:26.464Z,0.53
2024-03-26T00:11:26.497Z,0.52
2024-03-26T00:12:26.510Z,0.53
2024-03-26T00:13:26.538Z,0.53
2024-03-26T00:14:26.565Z,0.52
2024-03-26T00:15:26.586Z,0.52
2024-03-26T00:16:26.622Z,0.52
2024-03-26T00:17:26.644Z,0.53
2024-03-26T00:18:26.730Z,0.52
2024-03-26T00:19:26.682Z,0.52
2024-03-26T00:20:26.738Z,0.52
2024-03-26T00:21:26.752Z,0.52
2024-03-26T00:22:26.762Z,0.53
2024-03-26T00:23:26.795Z,0.53
2024-03-26T00:24:26.812Z,0.52
2024-03-26T00:25:26.844Z,0.53
2024-03-26T00:26:26.877Z,0.53
2024-03-26T00:27:26.907Z,0.52
2024-03-26T00:28:26.928Z,0.53
2024-03-26T00:29:26.965Z,0.52
2024-03-26T00:30:26.997Z,0.53
2024-03-26T00:31:27.022Z,0.53
2024-03-26T00:32:27.068Z,0.51
2024-03-26T00:33:27.089Z,0.52
2024-03-26T00:34:27.145Z,0.52
2024-03-26T00:35:27.196Z,0.53
2024-03-26T00:36:27.177Z,0.53
2024-03-26T00:37:27.200Z,0.52
2024-03-26T00:38:27.239Z,0.52
2024-03-26T00:39:27.266Z,0.53
2024-03-26T00:40:27.293Z,0.52
2024-03-26T00:41:27.318Z,0.52
2024-03-26T00:42:27.347Z,0.53
2024-03-26T00:43:27.385Z,0.52
2024-03-26T00:44:27.399Z,0.52
2024-03-26T00:45:27.435Z,0.52
2024-03-26T00:46:27.466Z,0.52
2024-03-26T00:47:27.491Z,0.53
2024-03-26T00:48:27.502Z,0.53
2024-03-26T00:49:27.533Z,0.52
2024-03-26T00:50:27.569Z,0.52
2024-03-26T00:51:27.600Z,0.53
2024-03-26T00:52:27.625Z,0.50
2024-03-26T00:53:27.648Z,0.52
2024-03-26T00:54:27.761Z,0.51
2024-03-26T00:55:27.698Z,0.51
2024-03-26T00:56:27.725Z,0.51
2024-03-26T00:57:27.773Z,0.52
2024-03-26T00:58:27.785Z,0.50
2024-03-26T00:59:27.815Z,0.51
2024-03-26T01:00:27.872Z,0.52
2024-03-26T01:01:27.876Z,0.52
2024-03-26T01:02:27.910Z,0.52
2024-03-26T01:03:27.965Z,0.52
2024-03-26T01:04:27.967Z,0.52
2024-03-26T01:05:28.026Z,0.51
2024-03-26T01:06:28.059Z,0.51
2024-03-26T01:07:28.061Z,0.52
2024-03-26T01:08:28.095Z,0.51
2024-03-26T01:09:28.132Z,0.51
2024-03-26T01:10:28.177Z,0.53
2024-03-26T01:11:28.190Z,0.51
2024-03-26T01:12:28.219Z,0.51
2024-03-26T01:13:28.250Z,0.52
2024-03-26T01:14:28.283Z,0.51
2024-03-26T01:15:28.315Z,0.51
2024-03-26T01:16:28.375Z,0.52
2024-03-26T01:17:28.422Z,0.53
2024-03-26T01:18:28.416Z,0.51
2024-03-26T01:19:28.446Z,0.52
2024-03-26T01:20:28.483Z,0.51
2024-03-26T01:21:28.509Z,0.51
2024-03-26T01:22:28.543Z,0.52
2024-03-26T01:23:28.576Z,0.52
2024-03-26T01:24:28.608Z,0.51
2024-03-26T01:25:28.630Z,0.50
2024-03-26T01:26:28.667Z,0.51
2024-03-26T01:27:28.699Z,0.50
2024-03-26T01:28:28.727Z,0.51
2024-03-26T01:29:28.752Z,0.52
2024-03-26T01:30:28.787Z,0.50
2024-03-26T01:31:28.823Z,0.52
2024-03-26T01:32:28.865Z,0.51
2024-03-26T01:33:28.875Z,0.51
2024-03-26T01:34:28.903Z,0.51
2024-03-26T01:35:28.939Z,0.51
2024-03-26T01:36:28.995Z,0.51
2024-03-26T01:37:29.030Z,0.52
2024-03-26T01:38:29.047Z,0.51
2024-03-26T01:39:29.830Z,0.51
2024-03-26T01:40:29.091Z,0.52
2024-03-26T01:41:29.121Z,0.51
2024-03-26T01:42:29.152Z,0.52
2024-03-26T01:43:29.204Z,0.52
2024-03-26T01:44:29.218Z,0.53
2024-03-26T01:45:29.263Z,0.51
2024-03-26T01:46:29.294Z,0.52
2024-03-26T01:47:29.337Z,0.52
2024-03-26T01:48:29.338Z,0.52
2024-03-26T01:49:29.388Z,0.50
2024-03-26T01:50:29.406Z,0.51
2024-03-26T01:51:29.458Z,0.50
2024-03-26T01:52:29.506Z,0.52
2024-03-26T01:53:29.547Z,0.51
2024-03-26T01:54:29.558Z,0.51
2024-03-26T01:55:29.597Z,0.53
2024-03-26T01:56:29.611Z,0.53
2024-03-26T01:57:29.652Z,0.53
2024-03-26T01:58:29.673Z,0.52
2024-03-26T01:59:29.704Z,0.52
2024-03-26T02:00:29.751Z,0.52
2024-03-26T02:01:29.773Z,0.51
2024-03-26T02:02:29.841Z,0.50
2024-03-26T02:03:29.837Z,0.50
2024-03-26T02:04:29.869Z,0.51
2024-03-26T02:05:29.910Z,0.51
2024-03-26T02:06:29.934Z,0.52
2024-03-26T02:07:29.966Z,0.51
2024-03-26T02:08:29.992Z,0.51
2024-03-26T02:09:30.022Z,0.51
2024-03-26T02:10:30.054Z,0.51
2024-03-26T02:11:30.096Z,0.51
2024-03-26T02:12:30.126Z,0.51
2024-03-26T02:13:30.156Z,0.51
2024-03-26T02:14:30.194Z,0.51
2024-03-26T02:15:30.232Z,0.51
2024-03-26T02:16:30.263Z,0.51
2024-03-26T02:17:30.307Z,0.51
2024-03-26T02:18:30.322Z,0.50
2024-03-26T02:19:30.352Z,0.52
2024-03-26T02:20:30.388Z,0.51
2024-03-26T02:21:30.423Z,0.52
2024-03-26T02:22:30.448Z,0.51
2024-03-26T02:23:30.485Z,0.51
2024-03-26T02:24:30.518Z,0.51
2024-03-26T02:25:30.545Z,0.51
2024-03-26T02:26:30.573Z,0.51
2024-03-26T02:27:30.602Z,0.52
2024-03-26T02:28:30.644Z,0.51
2024-03-26T02:29:30.669Z,0.51
2024-03-26T02:30:30.713Z,0.51
2024-03-26T02:31:30.756Z,0.52
2024-03-26T02:32:30.782Z,0.51
2024-03-26T02:33:30.806Z,0.51
2024-03-26T02:34:30.848Z,0.51
2024-03-26T02:35:30.882Z,0.51
2024-03-26T02:36:30.916Z,0.51
2024-03-26T02:37:30.960Z,0.52
2024-03-26T02:38:31.008Z,0.52
2024-03-26T02:39:31.030Z,0.51
2024-03-26T02:40:31.115Z,0.51
2024-03-26T02:41:31.178Z,0.52
2024-03-26T02:42:31.192Z,0.52
2024-03-26T02:43:31.234Z,0.51
2024-03-26T02:44:31.258Z,0.50
2024-03-26T02:45:31.308Z,0.52
2024-03-26T02:46:31.280Z,0.52
2024-03-26T02:47:31.293Z,0.53
2024-03-26T02:48:31.324Z,0.52
2024-03-26T02:49:31.365Z,0.51
2024-03-26T02:50:31.413Z,0.52
2024-03-26T02:51:31.450Z,0.52
2024-03-26T02:52:31.473Z,0.51
2024-03-26T02:53:31.503Z,0.52
2024-03-26T02:54:31.550Z,0.52
2024-03-26T02:55:31.613Z,0.52
2024-03-26T02:56:31.626Z,0.52
2024-03-26T02:57:31.681Z,0.52
2024-03-26T02:58:31.707Z,0.52
2024-03-26T02:59:31.746Z,0.52
2024-03-26T03:00:31.791Z,0.51
2024-03-26T03:01:31.835Z,0.52
2024-03-26T03:02:31.865Z,0.51
2024-03-26T03:03:31.901Z,0.50
2024-03-26T03:04:31.928Z,0.53
2024-03-26T03:05:31.966Z,0.52
2024-03-26T03:06:32.007Z,0.51
2024-03-26T03:07:32.050Z,0.51
2024-03-26T03:08:32.080Z,0.51
2024-03-26T03:09:32.121Z,0.51
2024-03-26T03:10:32.162Z,0.51
2024-03-26T03:11:32.207Z,0.52
2024-03-26T03:12:32.242Z,0.52
2024-03-26T03:13:32.284Z,0.52
2024-03-26T03:14:32.329Z,0.52
2024-03-26T03:15:32.364Z,0.52
2024-03-26T03:16:32.409Z,0.52
2024-03-26T03:17:32.477Z,0.52
2024-03-26T03:18:32.492Z,0.51
2024-03-26T03:19:32.528Z,0.51
2024-03-26T03:20:32.586Z,0.52
2024-03-26T03:21:32.610Z,0.52
2024-03-26T03:22:32.666Z,0.52
2024-03-26T03:23:32.693Z,0.52
2024-03-26T03:24:32.738Z,0.51
2024-03-26T03:25:32.773Z,0.52
2024-03-26T03:26:32.818Z,0.53
2024-03-26T03:27:32.863Z,0.51
2024-03-26T03:28:32.910Z,0.51
2024-03-26T03:29:32.955Z,0.52
2024-03-26T03:30:32.993Z,0.51
2024-03-26T03:31:33.048Z,0.51
2024-03-26T03:32:33.084Z,0.51
2024-03-26T03:33:33.130Z,0.52
2024-03-26T03:34:33.168Z,0.51
2024-03-26T03:35:33.212Z,0.50
2024-03-26T03:36:33.258Z,0.52
2024-03-26T03:37:33.300Z,0.52
2024-03-26T03:38:33.341Z,0.52
2024-03-26T03:39:33.380Z,0.52
2024-03-26T03:40:33.424Z,0.52
2024-03-26T03:41:33.477Z,0.51
2024-03-26T03:42:33.519Z,0.52
2024-03-26T03:43:33.562Z,0.52
2024-03-26T03:44:33.606Z,0.51
2024-03-26T03:45:33.648Z,0.53
2024-03-26T03:46:33.703Z,0.52
2024-03-26T03:47:33.745Z,0.52
2024-03-26T03:48:33.796Z,0.52
2024-03-26T03:49:33.836Z,0.52
2024-03-26T03:50:33.890Z,0.52
2024-03-26T03:51:33.945Z,0.51
2024-03-26T03:52:33.975Z,0.53
2024-03-26T03:53:34.042Z,0.52
2024-03-26T03:54:34.076Z,0.51
2024-03-26T03:55:34.129Z,0.53
2024-03-26T03:56:34.171Z,0.52
2024-03-26T03:57:34.215Z,0.51
2024-03-26T03:58:34.268Z,0.52
2024-03-26T03:59:34.304Z,0.52
2024-03-26T04:00:34.350Z,0.52
2024-03-26T04:01:34.399Z,0.51
2024-03-26T04:02:34.444Z,0.51
2024-03-26T04:03:34.491Z,0.52
2024-03-26T04:04:34.537Z,0.52
2024-03-26T04:05:34.602Z,0.51
2024-03-26T04:06:34.623Z,0.52
2024-03-26T04:07:34.666Z,0.52
2024-03-26T04:08:34.710Z,0.52
2024-03-26T04:09:34.751Z,0.52
2024-03-26T04:10:34.800Z,0.53
2024-03-26T04:11:34.857Z,0.52
2024-03-26T04:12:34.885Z,0.53
2024-03-26T04:13:34.934Z,0.52
2024-03-26T04:14:34.988Z,0.52
2024-03-26T04:15:35.022Z,0.52
2024-03-26T04:16:35.074Z,0.52
2024-03-26T04:17:35.114Z,0.53
2024-03-26T04:18:36.469Z,0.52
2024-03-26T04:19:35.195Z,0.52
2024-03-26T04:20:35.239Z,0.51
2024-03-26T04:21:35.284Z,0.52
2024-03-26T04:22:35.334Z,0.52
2024-03-26T04:23:35.372Z,0.52
2024-03-26T04:24:35.415Z,0.51
2024-03-26T04:25:35.478Z,0.52
2024-03-26T04:26:35.508Z,0.51
2024-03-26T04:27:35.544Z,0.52
2024-03-26T04:28:35.588Z,0.50
2024-03-26T04:29:35.632Z,0.52
2024-03-26T04:30:35.681Z,0.51
2024-03-26T04:31:35.715Z,0.51
2024-03-26T04:32:35.767Z,0.51
2024-03-26T04:33:35.799Z,0.52
2024-03-26T04:34:35.856Z,0.51
2024-03-26T04:35:35.898Z,0.52
2024-03-26T04:36:43.161Z,0.50
2024-03-26T04:37:43.170Z,0.50
2024-03-26T04:38:43.181Z,0.50
2024-03-26T04:39:43.192Z,0.50
2024-03-26T04:40:43.210Z,0.50
2024-03-26T04:41:43.241Z,0.51
2024-03-26T04:42:43.246Z,0.50
2024-03-26T04:43:43.273Z,0.50
2024-03-26T04:44:43.286Z,0.52
2024-03-26T04:45:43.307Z,0.51
2024-03-26T04:46:43.324Z,0.51
2024-03-26T04:47:43.338Z,0.52
2024-03-26T04:48:43.356Z,0.51
2024-03-26T04:49:43.375Z,0.51
2024-03-26T04:50:43.387Z,0.52
2024-03-26T04:51:43.391Z,0.51
2024-03-26T04:52:43.392Z,0.51
2024-03-26T04:53:43.414Z,0.51
2024-03-26T04:54:43.423Z,0.52
2024-03-26T04:55:43.462Z,0.51
2024-03-26T04:56:43.466Z,0.51
2024-03-26T04:57:43.472Z,0.51
2024-03-26T04:58:43.496Z,0.51
2024-03-26T04:59:43.509Z,0.51
2024-03-26T05:00:43.530Z,0.51
2024-03-26T05:01:43.551Z,0.52
2024-03-26T05:02:43.558Z,0.51
2024-03-26T05:03:43.592Z,0.50
2024-03-26T05:04:43.594Z,0.51
2024-03-26T05:05:43.603Z,0.51
2024-03-26T05:06:43.626Z,0.51
2024-03-26T05:07:43.631Z,0.51
2024-03-26T05:08:43.654Z,0.50
2024-03-26T05:09:43.676Z,0.52
2024-03-26T05:10:43.718Z,0.51
2024-03-26T05:11:43.709Z,0.52
2024-03-26T05:12:43.729Z,0.52
2024-03-26T05:13:43.747Z,0.51
2024-03-26T05:14:43.765Z,0.52
2024-03-26T05:15:43.785Z,0.53
2024-03-26T05:16:43.803Z,0.51
2024-03-26T05:17:43.804Z,0.51
2024-03-26T05:18:43.824Z,0.51
2024-03-26T05:19:43.828Z,0.52
2024-03-26T05:20:43.874Z,0.52
2024-03-26T05:21:43.850Z,0.52
2024-03-26T05:22:43.858Z,0.52
2024-03-26T05:23:43.880Z,0.52
2024-03-26T05:24:43.889Z,0.52
2024-03-26T05:25:43.909Z,0.52
2024-03-26T05:26:43.920Z,0.51
2024-03-26T05:27:43.936Z,0.52
2024-03-26T05:28:44.672Z,0.51
2024-03-26T05:29:43.979Z,0.51
2024-03-26T05:30:44.034Z,0.51
2024-03-26T05:31:44.087Z,0.51
2024-03-26T05:32:44.137Z,0.52
2024-03-26T05:33:44.183Z,0.51
2024-03-26T05:34:44.240Z,0.52
2024-03-26T05:35:44.292Z,0.51
2024-03-26T05:36:44.350Z,0.51
2024-03-26T05:37:44.404Z,0.51
2024-03-26T05:38:44.449Z,0.52
2024-03-26T05:39:44.499Z,0.52
2024-03-26T05:40:44.551Z,0.52
2024-03-26T05:41:44.613Z,0.52
2024-03-26T05:42:44.654Z,0.53
2024-03-26T05:43:44.707Z,0.52
2024-03-26T05:44:44.761Z,0.51
2024-03-26T05:45:44.802Z,0.51
2024-03-26T05:46:44.868Z,0.52
2024-03-26T05:47:44.910Z,0.51
2024-03-26T05:48:44.957Z,0.51
2024-03-26T05:49:44.993Z,0.52
2024-03-26T05:50:45.042Z,0.50
2024-03-26T05:51:45.096Z,0.52
2024-03-26T05:52:45.153Z,0.52
2024-03-26T05:53:45.229Z,0.51
2024-03-26T05:54:45.239Z,0.52
2024-03-26T05:55:45.293Z,0.52
2024-03-26T05:56:45.336Z,0.52
2024-03-26T05:57:45.380Z,0.53
2024-03-26T05:58:45.434Z,0.52
2024-03-26T05:59:45.481Z,0.51
2024-03-26T06:00:45.539Z,0.52
2024-03-26T06:01:45.588Z,0.51
2024-03-26T06:02:45.637Z,0.52
2024-03-26T06:03:45.672Z,0.51
2024-03-26T06:04:45.728Z,0.53
2024-03-26T06:05:45.766Z,0.52
2024-03-26T06:06:45.823Z,0.52
2024-03-26T06:07:45.863Z,0.51
2024-03-26T06:08:45.910Z,0.52
2024-03-26T06:09:45.965Z,0.52
2024-03-26T06:10:46.000Z,0.52
2024-03-26T06:11:46.059Z,0.52
2024-03-26T06:12:46.099Z,0.51
2024-03-26T06:13:46.143Z,0.51
2024-03-26T06:14:46.198Z,0.52
2024-03-26T06:15:46.240Z,0.52
2024-03-26T06:16:46.289Z,0.51
2024-03-26T06:17:46.330Z,0.51
2024-03-26T06:18:46.366Z,0.53
2024-03-26T06:19:46.412Z,0.52
2024-03-26T06:20:46.462Z,0.52
2024-03-26T06:21:46.507Z,0.51
2024-03-26T06:22:46.549Z,0.52
2024-03-26T06:23:46.594Z,0.52
2024-03-26T06:24:46.635Z,0.51
2024-03-26T06:25:46.672Z,0.52
2024-03-26T06:26:46.735Z,0.51
2024-03-26T06:27:46.773Z,0.52
2024-03-26T06:28:46.822Z,0.52
2024-03-26T06:29:46.858Z,0.50
2024-03-26T06:30:46.909Z,0.52
2024-03-26T06:31:46.988Z,0.50
2024-03-26T06:32:47.018Z,0.52
2024-03-26T06:33:47.027Z,0.53
2024-03-26T06:34:47.078Z,0.52
2024-03-26T06:35:47.121Z,0.51
2024-03-26T06:36:47.154Z,0.52
2024-03-26T06:37:47.194Z,0.52
2024-03-26T06:38:47.243Z,0.52
2024-03-26T06:39:47.276Z,0.52
2024-03-26T06:40:47.315Z,0.51
2024-03-26T06:41:47.361Z,0.52
2024-03-26T06:42:47.399Z,0.52
2024-03-26T06:43:47.436Z,0.51
2024-03-26T06:44:47.484Z,0.52
2024-03-26T06:45:47.527Z,0.52
2024-03-26T06:46:47.561Z,0.52
2024-03-26T06:47:47.596Z,0.51
2024-03-26T06:48:47.629Z,0.52
2024-03-26T06:49:47.665Z,0.51
2024-03-26T06:50:47.707Z,0.51
2024-03-26T06:51:47.759Z,0.51
2024-03-26T06:52:47.816Z,0.52
2024-03-26T06:53:47.824Z,0.51
2024-03-26T06:54:47.867Z,0.52
2024-03-26T06:55:47.900Z,0.52
2024-03-26T06:56:47.934Z,0.51
2024-03-26T06:57:47.963Z,0.52
2024-03-26T06:58:48.000Z,0.51
2024-03-26T06:59:48.026Z,0.50
2024-03-26T07:00:48.051Z,0.51
2024-03-26T07:01:48.090Z,0.51
2024-03-26T07:02:48.100Z,0.52
2024-03-26T07:03:48.137Z,0.52
2024-03-26T07:04:48.146Z,0.51
2024-03-26T07:05:48.180Z,0.52
2024-03-26T07:06:48.189Z,0.52
2024-03-26T07:07:48.212Z,0.52
2024-03-26T07:08:48.238Z,0.52
2024-03-26T07:09:48.245Z,0.52
2024-03-26T07:10:48.260Z,0.53
2024-03-26T07:11:48.288Z,0.52
2024-03-26T07:12:48.311Z,0.53
2024-03-26T07:13:48.338Z,0.53
2024-03-26T07:14:48.356Z,0.53
2024-03-26T07:15:48.374Z,0.53
2024-03-26T07:16:48.384Z,0.53
2024-03-26T07:17:48.405Z,0.53
2024-03-26T07:18:50.172Z,0.53
2024-03-26T07:19:48.432Z,0.53
2024-03-26T07:20:48.444Z,0.53
2024-03-26T07:21:48.458Z,0.54
2024-03-26T07:22:48.463Z,0.53
2024-03-26T07:23:48.474Z,0.53
2024-03-26T07:24:48.491Z,0.52
2024-03-26T07:25:48.506Z,0.52
2024-03-26T07:26:48.521Z,0.53
2024-03-26T07:27:48.525Z,0.53
2024-03-26T07:28:48.526Z,0.54
2024-03-26T07:29:48.537Z,0.53
2024-03-26T07:30:48.561Z,0.52
2024-03-26T07:31:48.555Z,0.53
2024-03-26T07:32:48.566Z,0.54
2024-03-26T07:33:48.579Z,0.53
2024-03-26T07:34:48.607Z,0.52
2024-03-26T07:35:48.623Z,0.52
2024-03-26T07:36:48.633Z,0.53
2024-03-26T07:37:48.642Z,0.52
2024-03-26T07:38:48.672Z,0.53
2024-03-26T07:39:48.654Z,0.53
2024-03-26T07:40:48.667Z,0.54
2024-03-26T07:41:48.771Z,0.53
2024-03-26T07:42:48.696Z,0.53
2024-03-26T07:43:48.697Z,0.53
2024-03-26T07:44:48.715Z,0.53
2024-03-26T07:45:48.723Z,0.54
2024-03-26T07:46:48.746Z,0.54
2024-03-26T07:47:48.746Z,0.54
2024-03-26T07:48:48.787Z,0.54
2024-03-26T07:49:48.772Z,0.54
2024-03-26T07:50:50.261Z,0.54
2024-03-26T07:51:48.786Z,0.55
2024-03-26T07:52:48.799Z,0.55
2024-03-26T07:53:48.816Z,0.54
2024-03-26T07:54:48.818Z,0.55
2024-03-26T07:55:48.823Z,0.55
2024-03-26T07:56:48.831Z,0.55
2024-03-26T07:57:48.832Z,0.55
2024-03-26T07:58:48.906Z,0.55
2024-03-26T07:59:48.898Z,0.55
2024-03-26T08:00:48.850Z,0.55
2024-03-26T08:01:48.978Z,0.55
2024-03-26T08:02:48.857Z,0.54
2024-03-26T08:03:48.934Z,0.55
2024-03-26T08:04:48.904Z,0.56
2024-03-26T08:05:48.862Z,0.54
2024-03-26T08:06:48.869Z,0.55
2024-03-26T08:07:48.863Z,0.55
2024-03-26T08:08:48.934Z,0.55
2024-03-26T08:09:48.895Z,0.55
2024-03-26T08:10:48.929Z,0.55
2024-03-26T08:11:48.974Z,0.55
2024-03-26T08:12:48.972Z,0.55
2024-03-26T08:13:49.014Z,0.54
2024-03-26T08:14:49.063Z,0.55
2024-03-26T08:15:49.120Z,0.55
2024-03-26T08:16:49.152Z,0.54
2024-03-26T08:17:49.189Z,0.55
2024-03-26T08:18:49.243Z,0.55
2024-03-26T08:19:49.328Z,0.55
2024-03-26T08:20:49.370Z,0.55
2024-03-26T08:21:49.440Z,0.55
2024-03-26T08:22:49.519Z,0.55
2024-03-26T08:23:49.544Z,0.55
2024-03-26T08:24:49.596Z,0.55
2024-03-26T08:25:49.719Z,0.54
2024-03-26T08:26:49.674Z,0.54
2024-03-26T08:27:49.699Z,0.55
2024-03-26T08:28:49.742Z,0.54
2024-03-26T08:29:49.747Z,0.54
2024-03-26T08:30:49.777Z,0.54
2024-03-26T08:31:49.819Z,0.54
2024-03-26T08:32:49.898Z,0.55
2024-03-26T08:33:49.975Z,0.54
2024-03-26T08:34:49.996Z,0.54
2024-03-26T08:35:50.059Z,0.54
2024-03-26T08:36:50.126Z,0.54
2024-03-26T08:37:50.142Z,0.55
2024-03-26T08:38:50.126Z,0.55
2024-03-26T08:39:50.126Z,0.53
2024-03-26T08:40:50.143Z,0.54
2024-03-26T08:41:50.164Z,0.55
2024-03-26T08:42:50.192Z,0.54
2024-03-26T08:43:50.276Z,0.55
2024-03-26T08:44:50.283Z,0.54
2024-03-26T08:45:50.298Z,0.54
2024-03-26T08:46:50.343Z,0.53
2024-03-26T08:47:50.404Z,0.54
2024-03-26T08:48:50.449Z,0.54
2024-03-26T08:49:50.495Z,0.54
2024-03-26T08:50:50.552Z,0.54
2024-03-26T08:51:52.150Z,0.54
2024-03-26T08:52:50.608Z,0.54
2024-03-26T08:53:50.644Z,0.53
2024-03-26T08:54:50.690Z,0.54
2024-03-26T08:55:50.761Z,0.53
2024-03-26T08:56:50.780Z,0.54
2024-03-26T08:57:50.819Z,0.54
2024-03-26T08:58:50.847Z,0.54
2024-03-26T08:59:50.892Z,0.54
2024-03-26T09:00:50.929Z,0.53
2024-03-26T09:01:50.988Z,0.54
2024-03-26T09:02:51.064Z,0.54
2024-03-26T09:03:51.026Z,0.54
2024-03-26T09:04:51.038Z,0.54
2024-03-26T09:05:51.042Z,0.54
2024-03-26T09:06:51.069Z,0.54
2024-03-26T09:07:51.075Z,0.54
2024-03-26T09:08:51.100Z,0.53
2024-03-26T09:09:51.134Z,0.54
2024-03-26T09:10:51.170Z,0.54
2024-03-26T09:11:51.199Z,0.54
2024-03-26T09:12:51.229Z,0.53
2024-03-26T09:13:51.241Z,0.54
2024-03-26T09:14:51.280Z,0.53
2024-03-26T09:15:51.266Z,0.54
2024-03-26T09:16:51.274Z,0.54
2024-03-26T09:17:51.294Z,0.54
2024-03-26T09:18:51.303Z,0.55
2024-03-26T09:19:51.330Z,0.55
2024-03-26T09:20:51.386Z,0.55
2024-03-26T09:21:51.386Z,0.54
2024-03-26T09:22:51.410Z,0.54
2024-03-26T09:23:52.042Z,0.55
2024-03-26T09:24:51.428Z,0.56
2024-03-26T09:25:51.461Z,0.55
2024-03-26T09:26:51.466Z,0.54
2024-03-26T09:27:51.486Z,0.54
2024-03-26T09:28:51.514Z,0.54
2024-03-26T09:29:51.531Z,0.55
2024-03-26T09:30:51.572Z,0.54
2024-03-26T09:31:51.574Z,0.55
2024-03-26T09:32:51.592Z,0.54
2024-03-26T09:33:51.982Z,0.55
2024-03-26T09:34:51.627Z,0.54
2024-03-26T09:35:51.643Z,0.54
2024-03-26T09:36:51.657Z,0.54
2024-03-26T09:37:51.659Z,0.55
2024-03-26T09:38:53.833Z,0.54
2024-03-26T09:39:52.690Z,0.54
2024-03-26T09:40:51.719Z,0.54
2024-03-26T09:41:51.702Z,0.54
2024-03-26T09:42:51.703Z,0.54
2024-03-26T09:43:51.709Z,0.54
2024-03-26T09:44:58.533Z,0.55
2024-03-26T09:45:52.731Z,0.55
2024-03-26T09:46:51.751Z,0.55
2024-03-26T09:47:51.752Z,0.55
2024-03-26T09:48:51.770Z,0.55
2024-03-26T09:49:51.759Z,0.55
2024-03-26T09:50:51.763Z,0.55
2024-03-26T09:51:51.758Z,0.55
2024-03-26T09:52:51.770Z,0.55
2024-03-26T09:53:51.777Z,0.55
2024-03-26T09:54:51.782Z,0.55
2024-03-26T09:55:51.807Z,0.55
2024-03-26T09:56:51.805Z,0.55
2024-03-26T09:57:51.815Z,0.55
2024-03-26T09:58:51.823Z,0.55
2024-03-26T09:59:51.834Z,0.56
2024-03-26T10:00:51.843Z,0.56
2024-03-26T10:01:51.849Z,0.55
2024-03-26T10:02:51.865Z,0.55
2024-03-26T10:03:51.896Z,0.55
2024-03-26T10:04:51.889Z,0.55
2024-03-26T10:05:51.885Z,0.55
2024-03-26T10:06:51.906Z,0.55
2024-03-26T10:07:51.899Z,0.55
2024-03-26T10:08:51.923Z,0.55
2024-03-26T10:09:51.919Z,0.55
2024-03-26T10:10:51.923Z,0.56
2024-03-26T10:11:51.929Z,0.55
2024-03-26T10:12:51.934Z,0.55
2024-03-26T10:13:51.936Z,0.55
2024-03-26T10:14:51.918Z,0.55
2024-03-26T10:15:51.928Z,0.56
2024-03-26T10:16:51.922Z,0.55
2024-03-26T10:17:51.925Z,0.56
2024-03-26T10:18:51.944Z,0.56
2024-03-26T10:19:52.002Z,0.55
2024-03-26T10:20:51.927Z,0.55
2024-03-26T10:21:51.931Z,0.55
2024-03-26T10:22:52.878Z,0.55
2024-03-26T10:23:51.926Z,0.55
2024-03-26T10:24:51.929Z,0.55
2024-03-26T10:25:51.984Z,0.55
2024-03-26T10:26:51.938Z,0.55
2024-03-26T10:27:51.938Z,0.55
2024-03-26T10:28:51.935Z,0.55
2024-03-26T10:29:51.966Z,0.56
2024-03-26T10:30:52.002Z,0.55
2024-03-26T10:31:52.061Z,0.56
2024-03-26T10:32:52.124Z,0.55
2024-03-26T10:33:52.160Z,0.56
2024-03-26T10:34:52.157Z,0.57
2024-03-26T10:35:52.163Z,0.56
2024-03-26T10:36:52.166Z,0.56
2024-03-26T10:37:54.831Z,0.56
2024-03-26T10:39:00.317Z,0.56
2024-03-26T10:39:53.154Z,0.56
2024-03-26T10:40:54.326Z,0.56
2024-03-26T10:41:52.172Z,0.56
2024-03-26T10:42:52.164Z,0.56
2024-03-26T10:43:52.165Z,0.56
2024-03-26T10:44:52.161Z,0.57
2024-03-26T10:46:52.205Z,0.56
2024-03-26T10:47:52.198Z,0.56
2024-03-26T10:48:57.578Z,0.56
2024-03-26T10:49:53.203Z,0.56
2024-03-26T10:50:52.191Z,0.56
2024-03-26T10:51:52.207Z,0.57
2024-03-26T10:52:52.229Z,0.58
2024-03-26T10:53:52.222Z,0.59
2024-03-26T10:54:52.225Z,0.59
2024-03-26T10:55:52.237Z,0.58
2024-03-26T10:56:52.226Z,0.58
2024-03-26T10:57:52.246Z,0.58
2024-03-26T10:58:52.307Z,0.59
2024-03-26T10:59:52.373Z,0.58
2024-03-26T11:00:52.449Z,0.58
2024-03-26T11:01:52.507Z,0.58
2024-03-26T11:02:52.571Z,0.58
2024-03-26T11:03:52.644Z,0.58
2024-03-26T11:04:52.688Z,0.58
2024-03-26T11:05:52.734Z,0.58
2024-03-26T11:06:52.805Z,0.58
2024-03-26T11:07:52.880Z,0.57
2024-03-26T11:08:52.940Z,0.58
2024-03-26T11:09:53.093Z,0.58
2024-03-26T11:10:54.169Z,0.58
2024-03-26T11:11:53.126Z,0.58
2024-03-26T11:12:53.177Z,0.58
2024-03-26T11:13:53.222Z,0.58
2024-03-26T11:14:53.263Z,0.57
2024-03-26T11:15:53.339Z,0.57
2024-03-26T11:16:53.394Z,0.58
2024-03-26T11:17:53.466Z,0.57
2024-03-26T11:18:53.504Z,0.58
2024-03-26T11:19:53.568Z,0.58
2024-03-26T11:20:53.649Z,0.58
2024-03-26T11:21:53.748Z,0.58
2024-03-26T11:22:53.745Z,0.58
2024-03-26T11:23:53.798Z,0.58
2024-03-26T11:24:53.842Z,0.58
2024-03-26T11:25:53.916Z,0.58
2024-03-26T11:26:53.959Z,0.57
2024-03-26T11:27:54.419Z,0.57
2024-03-26T11:28:54.055Z,0.57
2024-03-26T11:29:54.118Z,0.58
2024-03-26T11:30:54.181Z,0.57
2024-03-26T11:31:54.222Z,0.57
2024-03-26T11:32:54.294Z,0.58
2024-03-26T11:33:54.344Z,0.57
2024-03-26T11:34:54.410Z,0.57
2024-03-26T11:35:54.470Z,0.57
2024-03-26T11:36:54.519Z,0.57
2024-03-26T11:37:55.413Z,0.58
2024-03-26T11:38:54.632Z,0.57
2024-03-26T11:39:54.676Z,0.57
2024-03-26T11:40:54.737Z,0.57
2024-03-26T11:41:54.784Z,0.57
2024-03-26T11:42:54.840Z,0.57
2024-03-26T11:43:54.909Z,0.57
2024-03-26T11:44:54.980Z,0.57
2024-03-26T11:45:55.050Z,0.57
2024-03-26T11:46:55.105Z,0.57
2024-03-26T11:47:55.172Z,0.57
2024-03-26T11:48:55.234Z,0.57
2024-03-26T11:49:55.295Z,0.57
2024-03-26T11:50:55.363Z,0.57
2024-03-26T11:51:55.430Z,0.57
2024-03-26T11:52:55.520Z,0.58
2024-03-26T11:53:55.558Z,0.57
2024-03-26T11:54:55.596Z,0.57
2024-03-26T11:55:55.649Z,0.57
2024-03-26T11:56:55.701Z,0.57
2024-03-26T11:57:55.778Z,0.58
2024-03-26T11:58:55.794Z,0.58
2024-03-26T11:59:55.846Z,0.57
2024-03-26T12:00:55.900Z,0.57
2024-03-26T12:01:55.952Z,0.57
2024-03-26T12:02:56.015Z,0.57
2024-03-26T12:03:56.078Z,0.57
2024-03-26T12:04:56.117Z,0.57
2024-03-26T12:05:56.180Z,0.57
2024-03-26T12:06:56.232Z,0.58
2024-03-26T12:07:56.289Z,0.58
2024-03-26T12:08:56.345Z,0.58
2024-03-26T12:09:56.402Z,0.57
2024-03-26T12:10:56.472Z,0.58
2024-03-26T12:11:56.530Z,0.57
2024-03-26T12:12:56.579Z,0.57
2024-03-26T12:13:56.656Z,0.57
2024-03-26T12:14:56.725Z,0.58
2024-03-26T12:15:56.763Z,0.57
2024-03-26T12:16:56.814Z,0.57
2024-03-26T12:17:56.872Z,0.57
2024-03-26T12:18:56.939Z,0.57
2024-03-26T12:19:56.974Z,0.57
2024-03-26T12:20:57.030Z,0.57
2024-03-26T12:21:57.080Z,0.57
2024-03-26T12:22:57.136Z,0.57
2024-03-26T12:23:57.194Z,0.57
2024-03-26T12:24:57.249Z,0.57
2024-03-26T12:25:57.302Z,0.57
2024-03-26T12:26:57.365Z,0.58
2024-03-26T12:27:57.429Z,0.57
2024-03-26T12:28:57.499Z,0.57
2024-03-26T12:29:57.556Z,0.57
2024-03-26T12:30:57.749Z,0.57
2024-03-26T12:31:57.684Z,0.57
2024-03-26T12:32:57.752Z,0.57
2024-03-26T12:33:57.794Z,0.57
2024-03-26T12:34:57.853Z,0.57
2024-03-26T12:35:57.916Z,0.57
2024-03-26T12:36:57.954Z,0.57
2024-03-26T12:37:58.022Z,0.57
2024-03-26T12:38:58.936Z,0.57
2024-03-26T12:39:58.100Z,0.57
2024-03-26T12:40:58.146Z,0.57
2024-03-26T12:41:58.208Z,0.57
2024-03-26T12:42:58.255Z,0.57
2024-03-26T12:43:58.311Z,0.57
2024-03-26T12:44:58.374Z,0.57
2024-03-26T12:45:58.407Z,0.57
2024-03-26T12:46:58.466Z,0.57
2024-03-26T12:47:58.516Z,0.58
2024-03-26T12:48:58.580Z,0.57
2024-03-26T12:50:00.104Z,0.57
2024-03-26T12:50:58.641Z,0.58
2024-03-26T12:51:58.653Z,0.58
2024-03-26T12:52:58.659Z,0.57
2024-03-26T12:53:58.660Z,0.57
2024-03-26T12:54:58.661Z,0.57
2024-03-26T12:55:58.657Z,0.57
2024-03-26T12:56:58.657Z,0.57
2024-03-26T12:57:58.670Z,0.57
2024-03-26T12:58:58.665Z,0.58
2024-03-26T12:59:58.665Z,0.57
2024-03-26T13:00:58.677Z,0.58
2024-03-26T13:01:58.669Z,0.57
2024-03-26T13:02:58.669Z,0.57
2024-03-26T13:03:58.696Z,0.57
2024-03-26T13:04:58.660Z,0.57
2024-03-26T13:05:58.683Z,0.58
2024-03-26T13:06:58.663Z,0.57
2024-03-26T13:07:59.201Z,0.57
2024-03-26T13:08:58.651Z,0.57
2024-03-26T13:09:58.653Z,0.57
2024-03-26T13:10:58.656Z,0.57
2024-03-26T13:11:58.658Z,0.58
2024-03-26T13:12:58.655Z,0.57
2024-03-26T13:13:58.674Z,0.58
2024-03-26T13:14:58.655Z,0.58
2024-03-26T13:15:58.657Z,0.57
2024-03-26T13:16:58.661Z,0.58
2024-03-26T13:17:58.664Z,0.57
2024-03-26T13:18:58.674Z,0.58
2024-03-26T13:19:58.674Z,0.58